Mount Pocono, PA (18344)

11:31 AM EDT on July 07, 2015 (GMT -0400)
Pine Hill Estates | | Change Station
CLOSE
Current Station
Personal Weather Station
Location: Mount Pocono, PA
Elevation: 1781 ft
Nearby Weather Stations

Elev 1781 ft 41.13 °N, 75.35 °W | Updated 2 seconds ago

Overcast
Overcast
77.0 °F
Feels Like 79 °F
N
2.0
Wind Variable Wind from SSW
Gusts 4.0 mph

Today
High -- | Low -- °F
--% Chance of Precip.
Yesterday
High -- | Low -- °F
Precip. -- in
5:35 AM 8:36 PM
Waning Gibbous, 64% visible
Pressure 30.04 in
Visibility 10.0 miles
Clouds Mostly Cloudy 1600 ft
Mostly Cloudy 2200 ft
Overcast 4600 ft
Heat Index 79 °F
Dew Point 70 °F
Humidity 80%
Rainfall 0.07 in
Snow Depth Not available.
UV 6.8 out of 12
Pollen .90 out of 12
Air Quality Not available.
Flu Activity Not available.
METAR KMPO 071453Z AUTO 24003KT 10SM BKN016 BKN022 OVC046 23/19 A3008 RMK AO2 RAB1358E08 SLP173 P0000 60003 T02330194 58003

More Conditions Fewer Conditions

Pressure 30.04 in
Visibility 10.0 miles
Clouds Mostly Cloudy 1600 ft
Mostly Cloudy 2200 ft
Overcast 4600 ft
Heat Index 79 °F
Dew Point 70 °F
Humidity 80%
Rainfall 0.07 in
Snow Depth Not available.
UV 6.8 out of 12
Pollen .90 out of 12
Air Quality Not available.
Flu Activity Not available.
METAR KMPO 071453Z AUTO 24003KT 10SM BKN016 BKN022 OVC046 23/19 A3008 RMK AO2 RAB1358E08 SLP173 P0000 60003 T02330194 58003

More Conditions Fewer Conditions

10-Day Weather Forecast

×

Almanac

Astronomy

Jul. 07, 2015 Rise Set
Actual Time
Civil Twilight
Nautical Twilight
Astronomical Twilight
Moon
Length of Visible Light
Length of Day
Tomorrow will be .
, % of the Moon is Illuminated

Today's Extremes

State Highs State Lows

Community

WunderPhotos

Upload Photos

1,835,818 photos uploaded!

WunderBlogs® & News

Nearby

Air Quality

  Air Quality AQ Index Pollutant
Not available.

Snow Depth

Station Depth Elevation

Earthquake Activity

City Distance Mag. Time & Date
Minimum magnitude displayed is 2.5.

Coastal Water Temperatures

Place Temperature

Stations

Nearby Weather Stations

Station Location Temp. Windchill Dew Point Humidity Wind Precip. Elev Updated Type